Time;durP1;ratioP1;P1;durP2;ratioP2;P2;SDS_P1;SDS_P2;PMS_P1;PMS_P2;Temp;Humidity;BMP_temperature;BMP_pressure;BME280_temperature;BME280_humidity;BME280_pressure;Samples;Min_cycle;Max_cycle;Signal;HPM_P1;HPM_P2
2023/03/31 00:01:25;;;;;;;24.00;3.92;;;11.50;99.90;;;;;;5024610;28;20025;-70
2023/03/31 00:03:51;;;;;;;30.58;4.28;;;11.60;99.90;;;;;;5024678;28;20034;-70
2023/03/31 00:06:19;;;;;;;25.42;4.45;;;11.50;99.90;;;;;;5023398;28;20141;-70
2023/03/31 00:08:50;;;;;;;26.80;3.85;;;11.50;99.90;;;;;;5023263;28;20046;-73
2023/03/31 00:11:16;;;;;;;29.35;4.55;;;11.50;99.90;;;;;;5024889;28;20052;-70
2023/03/31 00:13:42;;;;;;;25.00;4.53;;;11.50;99.90;;;;;;5025064;28;20038;-70
2023/03/31 00:16:09;;;;;;;22.52;4.10;;;11.50;99.90;;;;;;5024586;28;20079;-70
2023/03/31 00:18:36;;;;;;;20.80;4.07;;;11.50;99.90;;;;;;5024494;28;20495;-70
2023/03/31 00:21:13;;;;;;;19.58;3.92;;;11.50;99.90;;;;;;5023317;28;20025;-70
2023/03/31 00:23:39;;;;;;;20.60;4.80;;;11.50;99.90;;;;;;5024685;28;20098;-69
2023/03/31 00:26:06;;;;;;;19.85;4.50;;;11.50;99.90;;;;;;5024490;28;20037;-70
2023/03/31 00:28:32;;;;;;;26.73;4.43;;;11.50;99.90;;;;;;5024580;28;20494;-71
2023/03/31 00:31:02;;;;;;;25.83;4.55;;;11.50;99.90;;;;;;5024351;28;20026;-69
2023/03/31 00:33:28;;;;;;;18.30;4.07;;;11.40;99.90;;;;;;5023154;28;20038;-71
2023/03/31 00:35:54;;;;;;;27.95;4.65;;;11.40;99.90;;;;;;5024129;28;20018;-70
2023/03/31 00:38:20;;;;;;;26.52;5.05;;;11.40;99.90;;;;;;5023918;28;20033;-70
2023/03/31 00:40:47;;;;;;;18.65;4.15;;;11.40;99.90;;;;;;5017343;28;20062;-70
2023/03/31 00:43:33;;;;;;;23.25;4.28;;;11.40;99.90;;;;;;5023148;28;20057;-72
2023/03/31 00:46:23;;;;;;;22.52;4.72;;;11.40;99.90;;;;;;5023970;28;20033;-71
2023/03/31 00:48:56;;;;;;;15.98;3.88;;;11.40;99.90;;;;;;5024728;28;20052;-70
2023/03/31 00:51:26;;;;;;;22.50;4.17;;;11.50;99.90;;;;;;5024584;28;20034;-72
2023/03/31 00:54:04;;;;;;;25.50;4.65;;;11.40;99.90;;;;;;5024246;28;20034;-71
2023/03/31 00:56:37;;;;;;;22.45;4.00;;;11.40;99.90;;;;;;5024470;28;20033;-70
2023/03/31 00:59:07;;;;;;;18.83;3.95;;;11.40;99.90;;;;;;5026533;28;20045;-70
2023/03/31 01:01:34;;;;;;;19.30;3.70;;;11.40;99.90;;;;;;5025132;28;20037;-68
2023/03/31 01:04:01;;;;;;;22.73;4.20;;;11.40;99.90;;;;;;5022729;28;20049;-69
2023/03/31 01:06:29;;;;;;;14.50;3.70;;;11.40;99.90;;;;;;5024029;28;20437;-71
2023/03/31 01:08:56;;;;;;;19.80;3.83;;;11.40;99.90;;;;;;5025834;28;20049;-71
2023/03/31 01:11:25;;;;;;;18.10;4.13;;;11.30;99.90;;;;;;5026149;28;20022;-70
2023/03/31 01:13:54;;;;;;;17.15;4.10;;;11.40;99.90;;;;;;5026351;28;20018;-70
2023/03/31 01:16:21;;;;;;;22.05;4.07;;;11.40;99.90;;;;;;5026270;28;20051;-70
2023/03/31 01:18:48;;;;;;;25.90;4.10;;;11.40;99.90;;;;;;5022709;28;20432;-70
2023/03/31 01:21:46;;;;;;;22.55;4.07;;;11.40;99.90;;;;;;5025083;28;20022;-72
2023/03/31 01:24:17;;;;;;;19.02;3.97;;;11.40;99.90;;;;;;5023243;28;20041;-71
2023/03/31 01:27:09;;;;;;;23.73;3.78;;;11.50;99.90;;;;;;5025897;28;20531;-72
2023/03/31 01:29:53;;;;;;;23.38;4.70;;;11.40;99.90;;;;;;5024520;28;20486;-70
2023/03/31 01:32:25;;;;;;;22.38;4.53;;;11.40;99.90;;;;;;5025852;28;20026;-72
2023/03/31 01:35:09;;;;;;;20.75;4.53;;;11.40;99.90;;;;;;5022938;28;20038;-72
2023/03/31 01:38:00;;;;;;;24.67;5.20;;;11.40;99.90;;;;;;5025555;28;20034;-70
2023/03/31 01:40:46;;;;;;;18.48;4.30;;;11.40;99.90;;;;;;5023043;28;20049;-71
2023/03/31 01:43:33;;;;;;;26.30;4.00;;;11.40;99.90;;;;;;5025977;28;20542;-71
2023/03/31 01:46:02;;;;;;;21.05;4.60;;;11.40;99.90;;;;;;5025730;28;20035;-69
2023/03/31 01:49:07;;;;;;;20.13;4.18;;;11.40;99.90;;;;;;5022468;28;20742;-70
2023/03/31 01:51:41;;;;;;;23.00;3.92;;;11.40;99.90;;;;;;5023214;28;20053;-70
2023/03/31 01:54:26;;;;;;;24.40;4.07;;;11.40;99.90;;;;;;5025395;28;20026;-69
2023/03/31 01:56:59;;;;;;;23.60;4.90;;;11.40;99.90;;;;;;5023237;28;20033;-71
2023/03/31 01:59:37;;;;;;;27.70;4.47;;;11.40;99.90;;;;;;5022832;28;20095;-70
2023/03/31 02:02:07;;;;;;;18.00;4.47;;;11.40;99.90;;;;;;5025237;28;20044;-70
2023/03/31 02:04:42;;;;;;;20.25;4.68;;;11.40;99.90;;;;;;5025260;28;20119;-70
2023/03/31 02:07:17;;;;;;;24.35;5.00;;;11.40;99.90;;;;;;5022829;28;20134;-73
2023/03/31 02:09:48;;;;;;;32.25;5.28;;;11.40;99.90;;;;;;5025093;28;20026;-72
2023/03/31 02:12:15;;;;;;;20.98;4.35;;;11.30;99.90;;;;;;5024006;28;20017;-70
2023/03/31 02:14:47;;;;;;;20.23;4.80;;;11.40;99.90;;;;;;5025298;28;20022;-69
2023/03/31 02:17:19;;;;;;;25.73;4.65;;;11.30;99.90;;;;;;5022408;28;20030;-70
2023/03/31 02:19:49;;;;;;;26.23;5.22;;;11.30;99.90;;;;;;5022478;28;20033;-72
2023/03/31 02:22:18;;;;;;;18.10;4.57;;;11.30;99.90;;;;;;5023853;28;20061;-70
2023/03/31 02:24:46;;;;;;;21.08;5.20;;;11.30;99.90;;;;;;5022301;28;20017;-70
2023/03/31 02:27:26;;;;;;;20.45;5.10;;;11.30;99.90;;;;;;5024327;28;20397;-69
2023/03/31 02:29:54;;;;;;;27.25;5.70;;;11.30;99.90;;;;;;5024624;28;20137;-72
2023/03/31 02:32:37;;;;;;;20.70;5.55;;;11.30;99.90;;;;;;5028563;28;20026;-71
2023/03/31 02:35:05;;;;;;;22.65;6.15;;;11.20;99.90;;;;;;5030841;28;20434;-69
2023/03/31 02:37:31;;;;;;;23.48;5.35;;;11.20;99.90;;;;;;5026174;28;20030;-71
2023/03/31 02:40:00;;;;;;;21.25;6.00;;;11.20;99.90;;;;;;5025885;28;20056;-69
2023/03/31 02:42:26;;;;;;;24.60;6.18;;;11.20;99.90;;;;;;5025719;28;20058;-70
2023/03/31 02:44:52;;;;;;;25.38;6.60;;;11.20;99.90;;;;;;5024610;28;20080;-70
2023/03/31 02:47:19;;;;;;;28.10;7.82;;;11.20;99.90;;;;;;5024720;28;20495;-70
2023/03/31 02:49:51;;;;;;;28.70;7.57;;;11.20;99.90;;;;;;5024587;28;20026;-69
2023/03/31 02:52:41;;;;;;;34.33;7.70;;;11.20;99.90;;;;;;5025924;28;20033;-71
2023/03/31 02:55:31;;;;;;;32.80;7.85;;;11.20;99.90;;;;;;5025921;28;20049;-70
2023/03/31 02:58:26;;;;;;;25.23;8.15;;;11.20;99.90;;;;;;5025626;28;20109;-70
2023/03/31 03:01:09;;;;;;;29.45;8.10;;;11.20;99.90;;;;;;5025722;28;20026;-70
2023/03/31 03:03:44;;;;;;;32.20;10.10;;;11.20;99.90;;;;;;5025545;28;20049;-69
2023/03/31 03:06:29;;;;;;;28.70;8.13;;;11.20;99.90;;;;;;5024296;28;20465;-71
2023/03/31 03:09:02;;;;;;;;;;;11.20;99.90;;;;;;5025062;28;20050;-71
2023/03/31 03:11:43;;;;;;;24.48;7.88;;;11.20;99.90;;;;;;5023910;28;19918;-71
2023/03/31 03:14:35;;;;;;;32.35;8.35;;;11.10;99.90;;;;;;5025652;28;20121;-71
2023/03/31 03:17:17;;;;;;;24.38;8.00;;;11.10;99.90;;;;;;5025324;28;20021;-69
2023/03/31 03:19:42;;;;;;;27.92;9.07;;;11.20;99.90;;;;;;5025419;28;20093;-72
2023/03/31 03:22:08;;;;;;;30.23;9.35;;;11.20;99.90;;;;;;5024043;28;20030;-70
2023/03/31 03:24:34;;;;;;;26.23;9.02;;;11.10;99.90;;;;;;5025258;28;20040;-71
2023/03/31 03:27:00;;;;;;;30.42;9.07;;;11.10;99.90;;;;;;5025055;28;20066;-70
2023/03/31 03:29:26;;;;;;;31.20;8.30;;;11.10;99.90;;;;;;5024993;28;20025;-70
2023/03/31 03:31:52;;;;;;;27.55;8.50;;;11.10;99.90;;;;;;5025166;28;20026;-71
2023/03/31 03:34:19;;;;;;;30.25;7.70;;;11.10;99.90;;;;;;5025136;28;20367;-69
2023/03/31 03:36:45;;;;;;;29.55;7.65;;;11.00;99.90;;;;;;5025296;28;20052;-71
2023/03/31 03:39:11;;;;;;;22.33;7.97;;;11.00;99.90;;;;;;5023924;28;20040;-72
2023/03/31 03:41:37;;;;;;;25.48;8.90;;;11.00;99.90;;;;;;5023695;28;20026;-68
2023/03/31 03:44:03;;;;;;;26.63;8.20;;;11.00;99.90;;;;;;5024910;28;20041;-68
2023/03/31 03:46:29;;;;;;;24.40;6.80;;;11.00;99.90;;;;;;5023533;28;20107;-70
2023/03/31 03:48:54;;;;;;;17.13;5.40;;;10.90;99.90;;;;;;5024922;28;20026;-69
2023/03/31 03:51:20;;;;;;;29.15;6.10;;;11.00;99.90;;;;;;5023403;28;20022;-71
2023/03/31 03:53:46;;;;;;;28.70;6.65;;;11.00;99.90;;;;;;5024127;28;20037;-74
2023/03/31 03:56:12;;;;;;;22.95;6.25;;;11.00;99.90;;;;;;5024010;28;20591;-71
2023/03/31 03:58:38;;;;;;;25.00;5.97;;;11.00;99.90;;;;;;5024726;28;20022;-70
2023/03/31 04:01:03;;;;;;;19.73;5.88;;;11.00;99.90;;;;;;5024536;28;20061;-69
2023/03/31 04:03:29;;;;;;;26.10;6.00;;;11.00;99.90;;;;;;5024544;28;20076;-71
2023/03/31 04:05:55;;;;;;;20.13;5.50;;;11.00;99.90;;;;;;5024846;28;20022;-70
2023/03/31 04:08:21;;;;;;;19.00;5.70;;;11.00;99.90;;;;;;5024337;28;20054;-71
2023/03/31 04:10:48;;;;;;;19.88;5.28;;;11.00;99.90;;;;;;5024782;28;20026;-72
2023/03/31 04:13:18;;;;;;;17.30;4.88;;;11.00;99.90;;;;;;5024838;28;20090;-70
2023/03/31 04:15:44;;;;;;;12.38;4.10;;;11.00;99.90;;;;;;5024872;28;20104;-69
2023/03/31 04:18:21;;;;;;;23.92;4.78;;;11.00;99.90;;;;;;5024789;28;20030;-69
2023/03/31 04:21:05;;;;;;;21.75;4.38;;;11.00;99.90;;;;;;5028938;28;20113;-69
2023/03/31 04:23:45;;;;;;;15.17;4.50;;;11.00;99.90;;;;;;5027349;28;20582;-71
2023/03/31 04:26:12;;;;;;;25.35;5.13;;;11.10;99.90;;;;;;5028557;28;20257;-71
2023/03/31 04:28:41;;;;;;;22.83;5.10;;;11.00;99.90;;;;;;5028570;28;20091;-72
2023/03/31 04:31:09;;;;;;;23.55;5.95;;;11.00;99.90;;;;;;5028327;28;20041;-71
2023/03/31 04:33:37;;;;;;;22.77;6.22;;;11.00;99.90;;;;;;5011196;28;20506;-69
2023/03/31 04:36:16;;;;;;;25.75;5.35;;;11.00;99.90;;;;;;5008717;28;20106;-70
2023/03/31 04:38:45;;;;;;;18.40;5.47;;;11.00;99.90;;;;;;5008660;28;20030;-69
2023/03/31 04:41:11;;;;;;;18.80;5.40;;;11.00;99.90;;;;;;5008542;28;20045;-69
2023/03/31 04:43:37;;;;;;;29.73;5.20;;;10.90;99.90;;;;;;5029431;28;20436;-69
2023/03/31 04:46:02;;;;;;;20.30;5.10;;;10.90;99.90;;;;;;5031524;28;20045;-70
2023/03/31 04:48:28;;;;;;;22.60;4.95;;;10.90;99.90;;;;;;5026866;28;20110;-70
2023/03/31 04:50:54;;;;;;;23.15;5.13;;;10.90;99.90;;;;;;5022685;28;20026;-71
2023/03/31 04:53:19;;;;;;;22.50;4.43;;;10.90;99.90;;;;;;5008112;28;20037;-69
2023/03/31 04:55:45;;;;;;;19.30;4.03;;;10.90;99.90;;;;;;5020543;28;20057;-70
2023/03/31 04:58:10;;;;;;;19.88;3.60;;;10.80;99.90;;;;;;5025612;28;20045;-68
2023/03/31 05:00:36;;;;;;;17.10;3.92;;;10.80;99.90;;;;;;5027777;28;20453;-69
2023/03/31 05:03:02;;;;;;;20.10;4.30;;;10.80;99.90;;;;;;5027511;28;20034;-69
2023/03/31 05:05:27;;;;;;;17.95;4.28;;;10.80;99.90;;;;;;5027679;28;20054;-69
2023/03/31 05:07:53;;;;;;;15.15;3.63;;;10.70;99.90;;;;;;5027180;28;20050;-69
2023/03/31 05:10:19;;;;;;;16.10;3.83;;;10.70;99.90;;;;;;5020839;28;20040;-69
2023/03/31 05:12:45;;;;;;;18.50;3.90;;;10.60;99.90;;;;;;5006932;28;20121;-70
2023/03/31 05:15:11;;;;;;;20.33;3.97;;;10.60;99.90;;;;;;5009256;28;21317;-68
2023/03/31 05:17:37;;;;;;;13.98;3.75;;;10.50;99.90;;;;;;5027016;28;20072;-69
2023/03/31 05:20:05;;;;;;;19.38;4.32;;;10.50;99.90;;;;;;5026757;28;20029;-71
2023/03/31 05:22:36;;;;;;;16.45;4.00;;;10.50;99.90;;;;;;5021448;28;20124;-71
2023/03/31 05:25:03;;;;;;;15.48;4.07;;;10.50;99.90;;;;;;5017877;28;20029;-68
2023/03/31 05:27:32;;;;;;;20.13;4.22;;;10.50;99.90;;;;;;5021770;28;20029;-71
2023/03/31 05:29:58;;;;;;;21.05;4.35;;;10.50;99.90;;;;;;5021515;28;20034;-70
2023/03/31 05:32:26;;;;;;;21.45;4.50;;;10.50;99.90;;;;;;5020513;28;20031;-68
2023/03/31 05:34:55;;;;;;;19.88;5.18;;;10.50;99.90;;;;;;5022493;28;20026;-70
2023/03/31 05:37:22;;;;;;;25.15;4.95;;;10.50;99.90;;;;;;5022261;28;20032;-69
2023/03/31 05:39:48;;;;;;;23.38;5.35;;;10.50;99.90;;;;;;5026946;28;20049;-70
2023/03/31 05:42:13;;;;;;;16.13;5.70;;;10.50;99.90;;;;;;5026726;28;20502;-71
2023/03/31 05:44:39;;;;;;;20.98;6.82;;;10.50;99.90;;;;;;5024877;28;20034;-69
2023/03/31 05:47:04;;;;;;;19.45;6.75;;;10.50;99.90;;;;;;5026761;28;20030;-70
2023/03/31 05:49:30;;;;;;;22.05;7.13;;;10.50;99.90;;;;;;5026559;28;20029;-70
2023/03/31 05:51:56;;;;;;;26.60;8.88;;;10.50;99.90;;;;;;5025299;28;20026;-69
2023/03/31 05:54:21;;;;;;;29.45;8.18;;;10.50;99.90;;;;;;5018936;28;20109;-69
2023/03/31 05:56:47;;;;;;;27.98;9.32;;;10.50;99.90;;;;;;5026295;28;20029;-71
2023/03/31 05:59:13;;;;;;;32.58;10.40;;;10.50;99.90;;;;;;5025533;28;20498;-69
2023/03/31 06:01:39;;;;;;;27.42;10.52;;;10.50;99.90;;;;;;5026618;28;20099;-69
2023/03/31 06:04:04;;;;;;;27.67;11.40;;;10.40;99.90;;;;;;5026199;28;20542;-68
2023/03/31 06:06:32;;;;;;;32.38;12.80;;;10.40;99.90;;;;;;5022312;28;20383;-69
2023/03/31 06:08:57;;;;;;;32.75;12.25;;;10.40;99.90;;;;;;5015305;28;20046;-69
2023/03/31 06:11:23;;;;;;;32.90;12.88;;;10.30;99.90;;;;;;5024704;28;20033;-67
2023/03/31 06:13:49;;;;;;;31.77;13.25;;;10.30;99.90;;;;;;5015230;28;20030;-69
2023/03/31 06:16:16;;;;;;;32.05;12.20;;;10.20;99.90;;;;;;5006631;28;20022;-68
2023/03/31 06:18:42;;;;;;;34.60;14.00;;;10.20;99.90;;;;;;5013840;28;20029;-67
2023/03/31 06:21:11;;;;;;;35.50;13.80;;;10.20;99.90;;;;;;5025929;28;20026;-69
2023/03/31 06:23:37;;;;;;;37.15;15.65;;;10.20;99.90;;;;;;5025892;28;20133;-68
2023/03/31 06:26:07;;;;;;;40.22;14.13;;;10.10;99.90;;;;;;5017771;28;20023;-68
2023/03/31 06:28:35;;;;;;;44.63;16.67;;;10.10;99.90;;;;;;5006101;28;20026;-69
2023/03/31 06:31:07;;;;;;;41.45;16.83;;;10.10;99.90;;;;;;5006341;28;20050;-68
2023/03/31 06:33:33;;;;;;;39.58;16.02;;;10.10;99.90;;;;;;5006135;28;20022;-68
2023/03/31 06:36:02;;;;;;;38.17;15.57;;;10.10;99.90;;;;;;5006135;28;20026;-70
2023/03/31 06:38:28;;;;;;;53.33;16.95;;;10.10;99.90;;;;;;5006260;28;20025;-68
2023/03/31 06:40:54;;;;;;;38.80;16.48;;;10.00;99.90;;;;;;5005740;28;20056;-69
2023/03/31 06:43:19;;;;;;;52.30;18.02;;;10.00;99.90;;;;;;5005484;28;20093;-68
2023/03/31 06:45:46;;;;;;;49.90;17.27;;;10.10;99.90;;;;;;5005893;28;20027;-69
2023/03/31 06:48:11;;;;;;;44.17;17.00;;;10.00;99.90;;;;;;5005662;28;20110;-70
2023/03/31 06:50:38;;;;;;;50.72;17.52;;;10.00;99.90;;;;;;5005794;28;20030;-68
2023/03/31 06:53:04;;;;;;;47.80;17.15;;;10.00;99.90;;;;;;5005643;28;20049;-68
2023/03/31 06:55:31;;;;;;;49.05;16.70;;;10.10;99.90;;;;;;5005487;28;20030;-68
2023/03/31 06:57:56;;;;;;;49.10;16.35;;;10.00;99.90;;;;;;5013112;28;20034;-68
2023/03/31 07:00:24;;;;;;;45.42;16.73;;;10.00;99.90;;;;;;5022984;28;20113;-68
2023/03/31 07:02:50;;;;;;;43.42;15.98;;;10.00;99.90;;;;;;5025241;28;20033;-70
2023/03/31 07:05:17;;;;;;;42.55;16.30;;;10.00;99.90;;;;;;5024285;28;20094;-73
2023/03/31 07:07:43;;;;;;;44.08;15.73;;;10.00;99.90;;;;;;5021205;28;20069;-69
2023/03/31 07:10:08;;;;;;;48.55;17.30;;;10.00;99.90;;;;;;5025437;28;20030;-69
2023/03/31 07:12:34;;;;;;;45.88;15.82;;;10.00;99.90;;;;;;5025232;28;20087;-70
2023/03/31 07:14:59;;;;;;;42.05;17.27;;;10.10;99.90;;;;;;5012577;28;20033;-69
2023/03/31 07:17:25;;;;;;;40.55;15.93;;;10.10;99.90;;;;;;5009294;28;20022;-70
2023/03/31 07:19:50;;;;;;;36.72;14.57;;;10.10;99.90;;;;;;5016694;28;20040;-69
2023/03/31 07:22:16;;;;;;;35.33;15.02;;;10.10;99.90;;;;;;5020968;28;20037;-72
2023/03/31 07:24:41;;;;;;;41.40;15.40;;;10.10;99.90;;;;;;5016648;28;20037;-68
2023/03/31 07:27:07;;;;;;;47.90;15.25;;;10.10;99.90;;;;;;5012772;28;20467;-69
2023/03/31 07:29:32;;;;;;;43.92;16.20;;;10.10;99.90;;;;;;5035554;28;20022;-68
2023/03/31 07:31:58;;;;;;;33.35;14.15;;;10.20;99.90;;;;;;5016101;28;20049;-71
2023/03/31 07:34:24;;;;;;;32.38;14.38;;;10.10;99.90;;;;;;5020235;28;20052;-70
2023/03/31 07:36:50;;;;;;;29.25;13.88;;;10.20;99.90;;;;;;5011818;28;20035;-66
2023/03/31 07:39:15;;;;;;;36.33;15.13;;;10.20;99.90;;;;;;5014684;28;20045;-68
2023/03/31 07:41:41;;;;;;;31.25;13.73;;;10.20;99.90;;;;;;5023852;28;20427;-69
2023/03/31 07:44:07;;;;;;;26.63;12.68;;;10.20;99.90;;;;;;5023320;28;20048;-67
2023/03/31 07:46:32;;;;;;;28.80;14.10;;;10.20;99.90;;;;;;5020584;28;20490;-68
2023/03/31 07:49:01;;;;;;;36.15;14.43;;;10.20;99.90;;;;;;5004718;28;20034;-69
2023/03/31 07:51:26;;;;;;;34.78;14.52;;;10.30;99.90;;;;;;5010820;28;20113;-68
2023/03/31 07:53:52;;;;;;;32.13;13.75;;;10.30;99.90;;;;;;5022751;28;20048;-68
2023/03/31 07:56:20;;;;;;;31.75;14.77;;;10.30;99.90;;;;;;5013806;28;20022;-67
2023/03/31 07:58:46;;;;;;;47.28;15.82;;;10.30;99.90;;;;;;5012914;28;20045;-68
2023/03/31 08:01:16;;;;;;;38.00;15.32;;;10.30;99.90;;;;;;5017519;28;20030;-68
2023/03/31 08:03:42;;;;;;;37.45;17.17;;;10.30;99.90;;;;;;5029388;28;20073;-68
2023/03/31 08:06:08;;;;;;;35.10;15.15;;;10.40;99.90;;;;;;5022188;28;20033;-68
2023/03/31 08:08:34;;;;;;;36.78;15.77;;;10.40;99.90;;;;;;5013169;28;20046;-69
2023/03/31 08:10:59;;;;;;;35.60;16.88;;;10.50;99.90;;;;;;5019319;28;20031;-68
2023/03/31 08:13:25;;;;;;;34.65;15.88;;;10.50;99.90;;;;;;5015173;28;20061;-67
2023/03/31 08:15:50;;;;;;;39.97;16.25;;;10.50;99.90;;;;;;5016762;28;20022;-67
2023/03/31 08:18:16;;;;;;;30.85;15.52;;;10.60;99.90;;;;;;5015960;28;20053;-68
2023/03/31 08:20:42;;;;;;;34.95;15.93;;;10.60;99.90;;;;;;5012013;28;20600;-69
2023/03/31 08:23:10;;;;;;;33.80;14.93;;;10.60;99.90;;;;;;5021046;28;20074;-66
2023/03/31 08:25:36;;;;;;;34.05;15.25;;;10.70;99.90;;;;;;5021788;28;20026;-68
2023/03/31 08:28:02;;;;;;;32.25;15.45;;;10.70;99.90;;;;;;5023067;28;20033;-68
2023/03/31 08:30:27;;;;;;;36.00;16.95;;;10.70;99.90;;;;;;5017525;28;20031;-68
2023/03/31 08:32:53;;;;;;;36.60;15.50;;;10.70;99.90;;;;;;5026665;28;20025;-68
2023/03/31 08:35:18;;;;;;;34.53;15.63;;;10.70;99.90;;;;;;5018924;28;20086;-68
2023/03/31 08:37:44;;;;;;;30.10;14.10;;;10.80;99.90;;;;;;5011568;28;20028;-69
2023/03/31 08:40:17;;;;;;;27.52;12.90;;;10.80;99.90;;;;;;5016159;28;20042;-69
2023/03/31 08:42:47;;;;;;;30.60;14.23;;;10.80;99.90;;;;;;5017364;28;20045;-67
2023/03/31 08:45:17;;;;;;;26.88;13.38;;;10.90;99.90;;;;;;5015463;28;20261;-68
2023/03/31 08:47:43;;;;;;;30.88;14.88;;;10.90;99.90;;;;;;5011811;28;20018;-68
2023/03/31 08:50:26;;;;;;;36.25;13.68;;;10.90;99.90;;;;;;5010588;28;20114;-67
2023/03/31 08:53:04;;;;;;;28.15;12.68;;;10.90;99.90;;;;;;5015278;28;20036;-67
2023/03/31 08:55:52;;;;;;;23.50;11.75;;;11.00;99.90;;;;;;5019326;28;20057;-67
2023/03/31 08:58:48;;;;;;;27.25;11.85;;;10.90;99.90;;;;;;5030504;28;20030;-72
2023/03/31 09:01:32;;;;;;;29.13;11.50;;;10.90;99.90;;;;;;5010897;28;20046;-70
2023/03/31 09:04:15;;;;;;;25.60;12.38;;;10.90;99.90;;;;;;5014380;28;20037;-69
2023/03/31 09:06:50;;;;;;;27.33;11.18;;;10.80;99.90;;;;;;5024959;28;20108;-67
2023/03/31 09:09:46;;;;;;;28.77;12.80;;;10.80;99.90;;;;;;5026649;28;20156;-68
2023/03/31 09:12:24;;;;;;;31.42;13.65;;;10.70;99.90;;;;;;5020737;28;20045;-67
2023/03/31 09:15:03;;;;;;;26.60;12.25;;;10.70;99.90;;;;;;5011639;28;20034;-68
2023/03/31 09:17:39;;;;;;;43.45;13.98;;;10.70;99.90;;;;;;5009333;28;20054;-67
2023/03/31 09:20:36;;;;;;;30.10;11.77;;;10.60;99.90;;;;;;5015321;28;20034;-68
2023/03/31 09:23:31;;;;;;;31.52;12.52;;;10.60;99.90;;;;;;5014372;28;20090;-67
2023/03/31 09:25:56;;;;;;;;;;;10.60;99.90;;;;;;5011134;28;20026;-67
2023/03/31 09:28:36;;;;;;;24.80;10.50;;;10.60;99.90;;;;;;5032333;28;19916;-69
2023/03/31 09:31:13;;;;;;;28.50;11.35;;;10.60;99.90;;;;;;5021800;28;20054;-68
2023/03/31 09:33:44;;;;;;;28.17;11.35;;;10.60;99.90;;;;;;5015314;28;20069;-68
2023/03/31 09:36:18;;;;;;;30.48;11.18;;;10.70;99.90;;;;;;5008722;28;20026;-69
2023/03/31 09:38:45;;;;;;;35.63;12.30;;;10.60;99.90;;;;;;5014981;28;20034;-67
2023/03/31 09:41:13;;;;;;;34.22;11.63;;;10.60;99.90;;;;;;5010097;28;20453;-67
2023/03/31 09:43:40;;;;;;;32.78;11.60;;;10.70;99.90;;;;;;5015457;28;20113;-69
2023/03/31 09:46:36;;;;;;;25.33;9.57;;;10.70;99.90;;;;;;5014501;28;20023;-68
2023/03/31 09:49:12;;;;;;;26.23;10.18;;;10.70;99.90;;;;;;5015803;28;20052;-70
2023/03/31 09:51:43;;;;;;;22.40;8.57;;;10.70;99.90;;;;;;5025199;28;20042;-68
2023/03/31 09:54:28;;;;;;;19.35;7.18;;;10.70;99.90;;;;;;5024829;28;20030;-69
2023/03/31 09:56:54;;;;;;;17.92;7.93;;;10.70;99.90;;;;;;5006514;28;20034;-68
2023/03/31 09:59:22;;;;;;;23.85;7.13;;;10.70;99.90;;;;;;5006661;28;20539;-70
2023/03/31 10:01:52;;;;;;;16.45;5.78;;;10.60;99.90;;;;;;5008614;28;20030;-67
2023/03/31 10:04:28;;;;;;;14.18;5.45;;;10.70;99.90;;;;;;5011225;28;20069;-69
2023/03/31 10:06:55;;;;;;;13.63;5.18;;;10.70;99.90;;;;;;5020708;28;20088;-68
2023/03/31 10:09:25;;;;;;;17.73;5.95;;;10.60;99.90;;;;;;5009111;28;20082;-71
2023/03/31 10:12:14;;;;;;;16.45;6.65;;;10.60;99.90;;;;;;5006404;28;20086;-67
2023/03/31 10:14:44;;;;;;;23.17;8.68;;;10.60;99.90;;;;;;5006307;28;20033;-68
2023/03/31 10:17:15;;;;;;;23.85;9.02;;;10.60;99.90;;;;;;5021796;28;20080;-68
2023/03/31 10:19:54;;;;;;;27.92;9.70;;;10.60;99.90;;;;;;5018889;28;20034;-67
2023/03/31 10:22:20;;;;;;;23.98;10.02;;;10.60;99.90;;;;;;5020454;28;20034;-68
2023/03/31 10:24:47;;;;;;;26.85;11.32;;;10.60;99.90;;;;;;5006121;28;20031;-68
2023/03/31 10:27:28;;;;;;;25.95;10.82;;;10.70;99.90;;;;;;5006415;28;20034;-67
2023/03/31 10:30:03;;;;;;;29.17;10.00;;;10.70;99.90;;;;;;5005975;28;20038;-70
2023/03/31 10:32:29;;;;;;;;;;;10.70;99.90;;;;;;5006123;28;20030;-67
2023/03/31 10:34:57;;;;;;;27.30;10.32;;;10.70;99.90;;;;;;5025177;28;19949;-67
2023/03/31 10:37:26;;;;;;;21.65;10.63;;;10.70;99.90;;;;;;5025283;28;20022;-70
2023/03/31 10:40:04;;;;;;;25.90;11.05;;;10.70;99.90;;;;;;5023884;28;20032;-70
2023/03/31 10:42:31;;;;;;;26.33;11.52;;;10.60;99.90;;;;;;5025018;28;20033;-68
2023/03/31 10:45:13;;;;;;;23.23;11.63;;;10.70;99.90;;;;;;5023838;28;20022;-69
2023/03/31 10:47:40;;;;;;;27.58;13.48;;;10.70;99.90;;;;;;5005424;28;20046;-69
2023/03/31 10:50:14;;;;;;;25.63;12.38;;;10.70;99.90;;;;;;5005574;28;20033;-69
2023/03/31 10:52:45;;;;;;;36.10;13.88;;;10.80;99.90;;;;;;5005598;28;20080;-68
2023/03/31 10:55:16;;;;;;;33.60;12.75;;;10.80;99.90;;;;;;5005650;28;20031;-70
2023/03/31 10:57:56;;;;;;;24.38;12.00;;;10.80;99.90;;;;;;5003933;28;20041;-68
2023/03/31 11:00:58;;;;;;;23.35;11.05;;;10.80;99.90;;;;;;5005279;28;20510;-69
2023/03/31 11:03:29;;;;;;;20.60;9.63;;;10.90;99.90;;;;;;4988351;28;20050;-69
2023/03/31 11:06:31;;;;;;;30.67;12.77;;;10.90;99.90;;;;;;5014185;28;20022;-67
2023/03/31 11:09:41;;;;;;;18.73;10.18;;;10.90;99.90;;;;;;5004707;28;20053;-69
2023/03/31 11:12:14;;;;;;;27.60;10.13;;;11.00;99.90;;;;;;5010885;28;20125;-68
2023/03/31 11:14:47;;;;;;;20.75;10.23;;;11.00;99.90;;;;;;5020165;28;20026;-69
2023/03/31 11:17:30;;;;;;;24.35;10.75;;;11.10;99.90;;;;;;5023939;28;20018;-68
2023/03/31 11:20:07;;;;;;;21.27;10.10;;;11.10;99.90;;;;;;5020259;28;20041;-69
2023/03/31 11:22:54;;;;;;;20.10;10.10;;;11.20;99.90;;;;;;5013919;28;20049;-68
2023/03/31 11:25:49;;;;;;;23.08;9.95;;;11.20;99.90;;;;;;5018538;28;20024;-69
2023/03/31 11:28:32;;;;;;;16.53;6.37;;;11.30;99.90;;;;;;5018223;28;20030;-70
2023/03/31 11:31:18;;;;;;;13.05;7.13;;;11.40;99.90;;;;;;5014270;28;20281;-67
2023/03/31 11:33:59;;;;;;;18.40;7.47;;;11.40;99.90;;;;;;5015289;28;20030;-68
2023/03/31 11:36:48;;;;;;;17.02;6.47;;;11.40;99.90;;;;;;5023458;28;20018;-69
2023/03/31 11:39:29;;;;;;;16.08;7.10;;;11.50;99.90;;;;;;5022281;28;20038;-69
2023/03/31 11:41:59;;;;;;;14.55;7.18;;;11.60;99.90;;;;;;5016402;28;20490;-68
2023/03/31 11:44:29;;;;;;;12.32;6.57;;;11.70;99.90;;;;;;5008017;28;20514;-69
2023/03/31 11:47:05;;;;;;;16.50;6.45;;;11.70;99.90;;;;;;5004670;28;20023;-70
2023/03/31 11:49:50;;;;;;;12.73;6.00;;;11.80;99.90;;;;;;5017447;28;20026;-69
2023/03/31 11:52:21;;;;;;;;;;;11.90;99.90;;;;;;5025630;28;20017;-69
2023/03/31 11:54:59;;;;;;;10.88;6.07;;;12.00;99.90;;;;;;5017321;28;19977;-70
2023/03/31 11:57:35;;;;;;;12.68;5.82;;;12.10;99.90;;;;;;5008173;28;20030;-68
2023/03/31 12:00:23;;;;;;;12.30;6.35;;;12.20;99.90;;;;;;5024348;28;20030;-73
2023/03/31 12:03:01;;;;;;;11.30;5.78;;;12.40;99.90;;;;;;5019263;28;20050;-72
2023/03/31 12:05:30;;;;;;;11.60;6.10;;;12.40;99.90;;;;;;5018224;28;20123;-72
2023/03/31 12:08:35;;;;;;;12.75;6.60;;;12.40;99.90;;;;;;5019458;28;20049;-69
2023/03/31 12:11:12;;;;;;;15.55;6.50;;;12.40;99.90;;;;;;5023287;28;20042;-69
2023/03/31 12:13:59;;;;;;;15.05;6.20;;;12.40;99.90;;;;;;5015650;28;20041;-68
2023/03/31 12:16:48;;;;;;;11.63;6.07;;;12.30;99.90;;;;;;5023835;28;20026;-71
2023/03/31 12:19:23;;;;;;;18.67;7.88;;;12.30;99.90;;;;;;5023964;28;20025;-71
2023/03/31 12:22:04;;;;;;;12.77;6.80;;;12.20;99.90;;;;;;5024854;28;20238;-71
2023/03/31 12:24:31;;;;;;;15.15;7.28;;;12.10;99.90;;;;;;5024592;28;20394;-70
2023/03/31 12:27:21;;;;;;;14.40;8.10;;;12.00;99.90;;;;;;5022463;28;20064;-69
2023/03/31 12:30:03;;;;;;;14.73;8.73;;;12.00;99.90;;;;;;5008813;28;20026;-71
2023/03/31 12:32:33;;;;;;;11.48;6.65;;;12.10;99.90;;;;;;5019546;28;20404;-69
2023/03/31 12:35:28;;;;;;;12.88;7.75;;;12.10;99.90;;;;;;5013503;28;20087;-69
2023/03/31 12:38:28;;;;;;;10.98;6.97;;;12.10;99.90;;;;;;5014247;28;20041;-68
2023/03/31 12:41:21;;;;;;;12.35;7.03;;;12.00;99.90;;;;;;5023207;28;20133;-69
2023/03/31 12:44:09;;;;;;;12.45;6.10;;;11.90;99.90;;;;;;5008273;28;20042;-69
2023/03/31 12:46:44;;;;;;;11.98;6.38;;;11.80;99.90;;;;;;5010279;28;20087;-69
2023/03/31 12:49:22;;;;;;;10.13;5.72;;;11.70;99.90;;;;;;5015928;28;20382;-68
2023/03/31 12:51:47;;;;;;;8.93;5.55;;;11.70;99.90;;;;;;5006533;28;20031;-70
2023/03/31 12:54:34;;;;;;;14.50;5.97;;;11.70;99.90;;;;;;5025891;28;20029;-68
2023/03/31 12:57:00;;;;;;;9.75;6.45;;;11.80;99.90;;;;;;5025879;28;20103;-67
2023/03/31 13:00:06;;;;;;;9.25;6.30;;;11.90;99.90;;;;;;5010599;28;20467;-68
2023/03/31 13:02:32;;;;;;;9.55;6.28;;;12.00;99.90;;;;;;5006075;28;20053;-67